Time;durP1;ratioP1;P1;durP2;ratioP2;P2;SDS_P1;SDS_P2;PMS_P1;PMS_P2;Temp;Humidity;BMP_temperature;BMP_pressure;BME280_temperature;BME280_humidity;BME280_pressure;Samples;Min_cycle;Max_cycle;Signal;HPM_P1;HPM_P2
2021/11/25 00:01:37;;;;;;;3.03;2.30;;;;;;;5.65;91.85;100507.81;5070618;28;20175;-77
2021/11/25 00:04:03;;;;;;;2.73;2.10;;;;;;;5.66;91.66;100511.34;5070611;28;20182;-76
2021/11/25 00:06:28;;;;;;;5.57;2.87;;;;;;;5.59;90.73;100510.81;5070417;28;20175;-76
2021/11/25 00:08:53;;;;;;;2.30;2.10;;;;;;;5.50;90.21;100507.06;5070411;28;20287;-77
2021/11/25 00:11:19;;;;;;;2.70;2.50;;;;;;;5.44;89.40;100503.53;5070537;28;20309;-77
2021/11/25 00:13:44;;;;;;;3.20;2.83;;;;;;;5.45;89.53;100499.75;5070600;28;20217;-77
2021/11/25 00:16:10;;;;;;;2.83;2.43;;;;;;;5.40;88.67;100496.25;5070522;28;20175;-76
2021/11/25 00:18:35;;;;;;;2.37;2.17;;;;;;;5.45;88.41;100490.81;5070595;28;20192;-77
2021/11/25 00:21:01;;;;;;;2.53;2.33;;;;;;;5.40;87.93;100485.41;5070585;28;20174;-76
2021/11/25 00:23:26;;;;;;;2.70;2.20;;;;;;;5.34;88.48;100482.69;5070611;28;20170;-77
2021/11/25 00:25:52;;;;;;;2.10;2.00;;;;;;;5.28;88.47;100481.09;5070427;28;20252;-76
2021/11/25 00:28:17;;;;;;;2.93;2.50;;;;;;;5.26;89.09;100477.88;5070501;28;20239;-76
2021/11/25 00:30:42;;;;;;;2.23;1.97;;;;;;;5.27;89.53;100474.06;5070109;28;20241;-76
2021/11/25 00:33:08;;;;;;;2.47;2.17;;;;;;;5.30;90.41;100478.94;5070343;28;20254;-77
2021/11/25 00:35:33;;;;;;;3.87;2.07;;;;;;;5.29;90.89;100471.88;5070245;28;20174;-77
2021/11/25 00:37:58;;;;;;;2.73;2.17;;;;;;;5.21;91.43;100461.66;5070138;28;20181;-76
2021/11/25 00:40:24;;;;;;;2.93;2.63;;;;;;;5.21;92.33;100458.94;5070233;28;20179;-77
2021/11/25 00:42:49;;;;;;;2.00;1.80;;;;;;;5.23;92.16;100453.25;5070444;28;20181;-77
2021/11/25 00:45:16;;;;;;;2.07;1.93;;;;;;;5.25;91.87;100460.00;5070195;28;20177;-77
2021/11/25 00:47:43;;;;;;;2.37;2.10;;;;;;;5.22;92.83;100457.84;5070198;28;20197;-77
2021/11/25 00:50:11;;;;;;;2.47;1.83;;;;;;;5.25;92.97;100451.06;5070109;28;20206;-78
2021/11/25 00:52:37;;;;;;;1.63;1.53;;;;;;;5.28;92.96;100445.09;5073560;28;20179;-76
2021/11/25 00:55:04;;;;;;;2.37;2.17;;;;;;;5.32;92.47;100427.19;5073912;28;20262;-77
2021/11/25 00:57:29;;;;;;;1.40;1.30;;;;;;;5.29;92.70;100428.56;5073833;28;20790;-77
2021/11/25 00:59:54;;;;;;;1.80;1.70;;;;;;;5.18;92.45;100413.41;5073929;28;20260;-77
2021/11/25 01:02:20;;;;;;;1.50;1.40;;;;;;;5.10;91.33;100415.91;5074170;28;20181;-76
2021/11/25 01:04:45;;;;;;;2.07;1.87;;;;;;;5.05;90.36;100417.53;5073606;28;20179;-77
2021/11/25 01:07:11;;;;;;;2.17;1.93;;;;;;;5.06;90.89;100421.03;5073824;28;20181;-77
2021/11/25 01:09:37;;;;;;;1.50;1.30;;;;;;;5.03;91.91;100417.00;5072297;28;20225;-77
2021/11/25 01:12:03;;;;;;;1.87;1.60;;;;;;;5.00;92.28;100417.53;5073696;28;20183;-76
2021/11/25 01:14:30;;;;;;;2.00;1.33;;;;;;;5.00;93.53;100424.84;5073711;28;20183;-77
2021/11/25 01:16:56;;;;;;;2.00;1.80;;;;;;;4.98;93.13;100427.03;5073377;28;20703;-76
2021/11/25 01:19:21;;;;;;;1.67;1.57;;;;;;;4.95;92.54;100412.16;5073636;28;20304;-76
2021/11/25 01:21:47;;;;;;;2.43;1.13;;;;;;;4.94;91.56;100407.81;5073499;28;20228;-77
2021/11/25 01:24:12;;;;;;;1.27;1.17;;;;;;;4.93;90.19;100408.09;5073605;28;20198;-76
2021/11/25 01:26:38;;;;;;;1.50;1.40;;;;;;;4.97;90.38;100403.75;5073462;28;20186;-76
2021/11/25 01:29:03;;;;;;;1.50;1.17;;;;;;;4.95;89.66;100401.31;5073343;28;20259;-77
2021/11/25 01:31:29;;;;;;;2.67;1.80;;;;;;;4.92;90.16;100401.88;5073420;28;20170;-76
2021/11/25 01:33:54;;;;;;;1.87;1.77;;;;;;;4.87;89.49;100387.53;5073311;28;20174;-77
2021/11/25 01:36:20;;;;;;;1.87;1.50;;;;;;;4.87;89.02;100388.34;5073155;28;20198;-76
2021/11/25 01:38:45;;;;;;;1.77;1.40;;;;;;;4.84;88.82;100388.09;5072841;28;20202;-75
2021/11/25 01:41:10;;;;;;;2.17;1.63;;;;;;;4.82;88.14;100384.84;5073247;28;20166;-76
2021/11/25 01:43:38;;;;;;;1.43;1.30;;;;;;;4.85;88.33;100385.09;5073212;28;20285;-76
2021/11/25 01:46:11;;;;;;;1.67;1.50;;;;;;;4.80;88.97;100379.72;5072806;28;20194;-76
2021/11/25 01:48:38;;;;;;;1.70;1.60;;;;;;;4.81;89.12;100372.41;5071605;28;20171;-77
2021/11/25 01:51:03;;;;;;;2.10;1.70;;;;;;;4.75;88.99;100366.97;5072978;28;20198;-75
2021/11/25 01:53:28;;;;;;;1.33;0.97;;;;;;;4.71;88.85;100360.50;5072883;28;20205;-76
2021/11/25 01:55:54;;;;;;;1.40;1.00;;;;;;;4.69;88.97;100359.16;5072760;28;20875;-75
2021/11/25 01:58:19;;;;;;;1.30;1.20;;;;;;;4.66;89.12;100365.94;5071592;28;20263;-76
2021/11/25 02:00:52;;;;;;;1.40;1.30;;;;;;;4.66;89.38;100360.53;5072920;28;20181;-76
2021/11/25 02:03:17;;;;;;;1.20;1.10;;;;;;;4.68;89.86;100361.06;5072525;28;20194;-76
2021/11/25 02:05:43;;;;;;;1.70;1.60;;;;;;;4.67;90.28;100367.56;5072553;28;20205;-76
2021/11/25 02:08:09;;;;;;;1.03;0.97;;;;;;;4.63;90.16;100360.25;5072509;28;20174;-75
2021/11/25 02:10:43;;;;;;;1.90;1.77;;;;;;;4.62;90.06;100356.72;5072308;28;20210;-77
2021/11/25 02:13:08;;;;;;;1.70;1.60;;;;;;;4.57;90.02;100351.34;5072701;28;20159;-76
2021/11/25 02:15:37;;;;;;;2.33;1.20;;;;;;;4.60;90.60;100347.28;5072295;28;20255;-76
2021/11/25 02:18:09;;;;;;;1.40;1.17;;;;;;;4.60;91.30;100341.84;5072407;28;20214;-76
2021/11/25 02:20:39;;;;;;;1.43;1.33;;;;;;;4.54;91.43;100338.38;5072407;28;20328;-76
2021/11/25 02:23:06;;;;;;;1.17;1.13;;;;;;;4.50;91.24;100340.00;5072363;28;20167;-76
2021/11/25 02:25:32;;;;;;;2.73;1.73;;;;;;;4.47;91.91;100332.41;5072118;28;20202;-76
2021/11/25 02:27:58;;;;;;;2.00;1.67;;;;;;;4.49;91.64;100338.38;5070916;28;20202;-76
2021/11/25 02:30:23;;;;;;;1.73;1.30;;;;;;;4.48;91.78;100334.88;5072055;28;20731;-76
2021/11/25 02:32:49;;;;;;;1.47;1.37;;;;;;;4.50;91.76;100321.06;5072186;28;20227;-76
2021/11/25 02:35:21;;;;;;;2.23;1.80;;;;;;;4.50;91.31;100320.25;5071788;28;20170;-77
2021/11/25 02:37:48;;;;;;;1.60;1.37;;;;;;;4.50;91.71;100323.78;5071808;28;20187;-76
2021/11/25 02:40:35;;;;;;;1.70;1.60;;;;;;;4.53;91.91;100317.00;5072044;28;20208;-77
2021/11/25 02:43:05;;;;;;;2.20;1.70;;;;;;;4.54;92.38;100314.00;5070107;28;20179;-76
2021/11/25 02:45:31;;;;;;;1.80;1.70;;;;;;;4.54;91.95;100314.00;5070544;28;20181;-77
2021/11/25 02:47:57;;;;;;;2.43;1.83;;;;;;;4.51;92.47;100317.28;5071846;28;20215;-76
2021/11/25 02:50:24;;;;;;;3.17;2.87;;;;;;;4.55;92.25;100314.81;5071699;28;20588;-76
2021/11/25 02:52:50;;;;;;;1.60;1.43;;;;;;;4.59;93.07;100315.88;5071490;28;20529;-77
2021/11/25 02:55:17;;;;;;;2.27;2.07;;;;;;;4.54;92.93;100305.91;5071612;28;20270;-76
2021/11/25 02:57:43;;;;;;;1.40;1.30;;;;;;;4.59;94.22;100305.88;5071556;28;20198;-76
2021/11/25 03:00:30;;;;;;;2.10;2.00;;;;;;;4.57;93.22;100304.53;5071862;28;20697;-77
2021/11/25 03:03:17;;;;;;;4.60;1.90;;;;;;;4.55;92.00;100309.41;5080283;28;20192;-77
2021/11/25 03:05:45;;;;;;;2.50;1.37;;;;;;;4.52;91.21;100305.38;5075509;28;20235;-78
2021/11/25 03:08:11;;;;;;;1.77;1.43;;;;;;;4.57;90.82;100302.63;5072431;28;20171;-77
2021/11/25 03:10:49;;;;;;;1.60;1.50;;;;;;;4.54;90.45;100288.84;5072091;28;20343;-77
2021/11/25 03:13:18;;;;;;;2.77;2.57;;;;;;;4.53;90.30;100289.94;5071261;28;20197;-77
2021/11/25 03:15:44;;;;;;;2.10;1.83;;;;;;;4.55;91.07;100293.19;5071215;28;20668;-77
2021/11/25 03:18:11;;;;;;;1.80;1.37;;;;;;;4.52;89.89;100294.53;5071495;28;20492;-77
2021/11/25 03:20:38;;;;;;;7.63;1.70;;;;;;;4.52;90.51;100291.03;5071320;28;20182;-77
2021/11/25 03:23:07;;;;;;;0.73;0.73;;;;;;;4.48;90.43;100282.63;5071291;28;20178;-77
2021/11/25 03:25:34;;;;;;;1.50;1.40;;;;;;;4.46;90.36;100280.22;5071210;28;20641;-77
2021/11/25 03:27:59;;;;;;;2.43;1.90;;;;;;;4.45;90.55;100277.78;5071617;28;20251;-77
2021/11/25 03:30:25;;;;;;;1.43;1.33;;;;;;;4.44;90.93;100282.38;5071203;28;20589;-77
2021/11/25 03:32:50;;;;;;;1.77;1.67;;;;;;;4.44;91.41;100287.78;5071150;28;20223;-77
2021/11/25 03:35:16;;;;;;;1.83;1.67;;;;;;;4.44;91.91;100281.56;5071121;28;20538;-77
2021/11/25 03:37:41;;;;;;;1.43;1.33;;;;;;;4.45;91.30;100275.88;5070904;28;20178;-78
2021/11/25 03:40:09;;;;;;;2.23;1.73;;;;;;;4.53;92.25;100279.13;5071112;28;20186;-77
2021/11/25 03:42:34;;;;;;;1.60;1.50;;;;;;;4.51;91.89;100273.19;5071144;28;20377;-77
2021/11/25 03:44:59;;;;;;;1.20;1.10;;;;;;;4.52;91.98;100267.50;5071070;28;20577;-77
2021/11/25 03:47:25;;;;;;;1.70;1.50;;;;;;;4.52;91.68;100267.50;5069665;28;20178;-77
2021/11/25 03:49:50;;;;;;;1.73;1.63;;;;;;;4.54;91.24;100262.63;5071107;28;20301;-77
2021/11/25 03:52:16;;;;;;;2.23;1.90;;;;;;;4.49;90.99;100257.22;5070865;28;20249;-77
2021/11/25 03:54:41;;;;;;;1.63;1.53;;;;;;;4.46;91.30;100257.75;5070786;28;20178;-77
2021/11/25 03:57:07;;;;;;;1.80;1.63;;;;;;;4.39;90.47;100263.47;5070873;28;20673;-78
2021/11/25 03:59:32;;;;;;;1.77;1.67;;;;;;;4.38;91.46;100250.22;5070745;28;20206;-76
2021/11/25 04:01:58;;;;;;;2.00;1.53;;;;;;;4.35;91.62;100251.59;5070756;28;20228;-77
2021/11/25 04:04:24;;;;;;;1.00;0.90;;;;;;;4.35;91.87;100254.28;5070726;28;20175;-78
2021/11/25 04:06:49;;;;;;;1.90;1.80;;;;;;;4.33;92.20;100255.63;5070787;28;20658;-77
2021/11/25 04:09:14;;;;;;;2.03;1.77;;;;;;;4.31;91.35;100250.50;5070893;28;20245;-78
2021/11/25 04:11:40;;;;;;;2.03;1.93;;;;;;;4.32;91.23;100251.31;5070673;28;20254;-77
2021/11/25 04:14:05;;;;;;;2.00;1.80;;;;;;;4.31;91.40;100249.69;5070697;28;20193;-77
2021/11/25 04:16:31;;;;;;;2.07;1.90;;;;;;;4.30;91.63;100251.59;5070636;28;20530;-77
2021/11/25 04:18:57;;;;;;;1.97;1.77;;;;;;;4.30;91.42;100246.19;5070627;28;20228;-77
2021/11/25 04:21:24;;;;;;;1.63;1.53;;;;;;;4.31;91.88;100245.09;5070569;28;20680;-77
2021/11/25 04:23:49;;;;;;;1.53;1.17;;;;;;;4.32;91.52;100243.19;5070773;28;20185;-77
2021/11/25 04:26:15;;;;;;;1.70;1.60;;;;;;;4.30;91.96;100240.78;5073138;28;20178;-76
2021/11/25 04:28:40;;;;;;;2.37;1.80;;;;;;;4.30;91.64;100243.47;5074766;28;20185;-77
2021/11/25 04:36:34;;;;;;;2.20;2.00;;;;;;;4.31;91.61;100223.47;5074455;28;20216;-77
2021/11/25 04:39:00;;;;;;;1.90;1.80;;;;;;;4.32;92.89;100218.84;5074220;28;20174;-77
2021/11/25 04:41:25;;;;;;;1.77;1.60;;;;;;;4.31;92.80;100220.75;5073000;28;20174;-77
2021/11/25 04:43:51;;;;;;;1.33;1.20;;;;;;;4.31;92.71;100211.84;5074233;28;20204;-77
2021/11/25 04:46:16;;;;;;;1.30;1.20;;;;;;;4.29;91.79;100206.69;5074288;28;20554;-77
2021/11/25 04:48:42;;;;;;;2.00;1.80;;;;;;;4.30;91.46;100215.63;5074182;28;20182;-77
2021/11/25 04:51:07;;;;;;;1.87;1.77;;;;;;;4.31;90.84;100209.13;5074193;28;20194;-77
2021/11/25 04:53:33;;;;;;;1.20;1.10;;;;;;;4.31;91.18;100209.13;5074167;28;20174;-77
2021/11/25 04:55:58;;;;;;;1.80;1.70;;;;;;;4.28;91.36;100204.28;5073826;28;20190;-77
2021/11/25 04:58:24;;;;;;;0.77;0.77;;;;;;;4.26;92.03;100203.75;5074258;28;20253;-77
2021/11/25 05:00:49;;;;;;;1.30;1.03;;;;;;;4.28;92.13;100205.09;5073959;28;20228;-76
2021/11/25 05:03:15;;;;;;;1.40;0.90;;;;;;;4.27;92.39;100213.47;5074220;28;20201;-77
2021/11/25 05:05:40;;;;;;;2.00;1.37;;;;;;;4.25;92.74;100202.13;5073706;28;20209;-77
2021/11/25 05:08:06;;;;;;;2.13;1.90;;;;;;;4.22;93.56;100203.50;5073745;28;20183;-76
2021/11/25 05:10:31;;;;;;;1.10;1.10;;;;;;;4.20;94.16;100199.44;5073731;28;20204;-77
2021/11/25 05:12:56;;;;;;;1.00;1.00;;;;;;;4.18;94.25;100203.22;5073793;28;20523;-76
2021/11/25 05:15:22;;;;;;;2.23;2.03;;;;;;;4.16;95.07;100197.28;5073712;28;20175;-77
2021/11/25 05:17:48;;;;;;;1.87;1.77;;;;;;;4.14;95.15;100201.34;5073769;28;20257;-77
2021/11/25 05:20:15;;;;;;;1.33;1.23;;;;;;;4.12;95.78;100200.81;5073677;28;20171;-76
2021/11/25 05:22:41;;;;;;;1.23;0.90;;;;;;;4.10;96.09;100198.38;5073723;28;20820;-77
2021/11/25 05:25:08;;;;;;;2.13;1.07;;;;;;;4.07;96.41;100196.25;5073328;28;20185;-77
2021/11/25 05:27:34;;;;;;;1.20;0.33;;;;;;;4.06;97.02;100180.28;5073608;28;20183;-77
2021/11/25 05:29:59;;;;;;;2.10;1.97;;;;;;;4.05;98.31;100193.00;5073380;28;20339;-77
2021/11/25 05:32:25;;;;;;;2.20;1.57;;;;;;;4.08;99.35;100191.63;5073486;28;20213;-77
2021/11/25 05:34:50;;;;;;;2.30;2.10;;;;;;;4.07;98.62;100190.84;5073284;28;20189;-77
2021/11/25 05:37:18;;;;;;;1.73;1.40;;;;;;;4.08;98.73;100199.75;5072349;28;20214;-77
2021/11/25 05:39:43;;;;;;;1.97;1.40;;;;;;;4.02;99.45;100192.72;5073455;28;20208;-77
2021/11/25 05:42:09;;;;;;;2.40;1.50;;;;;;;3.99;100.00;100185.97;5073333;28;20170;-77
2021/11/25 05:44:35;;;;;;;0.50;0.50;;;;;;;3.96;100.00;100194.63;5073318;28;20519;-77
2021/11/25 05:47:00;;;;;;;3.17;2.20;;;;;;;3.97;100.00;100185.44;5073181;28;20240;-77
2021/11/25 05:49:26;;;;;;;3.47;2.90;;;;;;;3.98;100.00;100191.66;5071656;28;20722;-77
2021/11/25 05:51:52;;;;;;;11.43;1.57;;;;;;;3.96;100.00;100178.41;5073021;28;20179;-76
2021/11/25 05:54:17;;;;;;;1.67;1.50;;;;;;;3.95;100.00;100181.41;5073224;28;20195;-77
2021/11/25 05:56:43;;;;;;;2.47;2.27;;;;;;;3.96;100.00;100173.00;5072868;28;20566;-77
2021/11/25 05:59:08;;;;;;;2.17;1.97;;;;;;;3.99;100.00;100172.47;5073002;28;20182;-77
2021/11/25 06:01:33;;;;;;;1.30;1.20;;;;;;;3.98;100.00;100170.03;5072962;28;20533;-77
2021/11/25 06:03:59;;;;;;;0.50;0.50;;;;;;;3.97;100.00;100173.81;5072988;28;20626;-76
2021/11/25 06:06:25;;;;;;;1.13;0.93;;;;;;;3.95;100.00;100168.69;5072671;28;20642;-76
2021/11/25 06:08:51;;;;;;;0.63;0.57;;;;;;;3.96;100.00;100161.41;5072667;28;20202;-77
2021/11/25 06:11:17;;;;;;;1.50;1.40;;;;;;;3.97;98.80;100152.19;5072771;28;20261;-76
2021/11/25 06:13:43;;;;;;;0.33;0.33;;;;;;;3.98;98.40;100153.81;5072771;28;20179;-76
2021/11/25 06:16:09;;;;;;;2.30;1.97;;;;;;;3.99;98.47;100160.84;5072597;28;20197;-76
2021/11/25 06:18:34;;;;;;;2.23;1.70;;;;;;;4.01;99.60;100159.47;5072520;28;20716;-77
2021/11/25 06:21:00;;;;;;;1.33;1.27;;;;;;;3.98;98.57;100154.63;5072510;28;20645;-76
2021/11/25 06:23:25;;;;;;;0.80;0.80;;;;;;;3.98;98.38;100156.53;5072419;28;20181;-77
2021/11/25 06:25:50;;;;;;;3.67;3.37;;;;;;;3.96;98.38;100156.78;5072362;28;20257;-77
2021/11/25 06:28:16;;;;;;;3.27;3.07;;;;;;;3.97;98.30;100152.19;5072433;28;20202;-77
2021/11/25 06:30:42;;;;;;;0.80;0.80;;;;;;;3.98;98.31;100156.53;5072255;28;20289;-77
2021/11/25 06:33:07;;;;;;;1.33;1.23;;;;;;;3.96;97.50;100156.78;5072375;28;20179;-77
2021/11/25 06:35:33;;;;;;;2.17;2.00;;;;;;;3.97;97.45;100153.00;5072144;28;20182;-77
2021/11/25 06:37:59;;;;;;;4.40;3.43;;;;;;;4.00;96.98;100146.25;5072204;28;20177;-76
2021/11/25 06:40:30;;;;;;;4.03;2.87;;;;;;;4.02;97.57;100150.28;5072452;28;20178;-77
2021/11/25 06:42:58;;;;;;;2.27;1.03;;;;;;;4.02;97.79;100158.38;5072242;28;20249;-77
2021/11/25 06:45:25;;;;;;;2.13;1.93;;;;;;;4.03;97.44;100148.38;5071831;28;20186;-77
2021/11/25 06:47:51;;;;;;;1.80;1.70;;;;;;;4.01;96.01;100148.66;5071968;28;20179;-76
2021/11/25 06:50:18;;;;;;;3.43;2.43;;;;;;;4.04;95.85;100158.13;5071135;28;20202;-77
2021/11/25 06:52:44;;;;;;;2.57;2.37;;;;;;;4.03;96.30;100157.31;5071879;28;20175;-76
2021/11/25 06:55:10;;;;;;;1.97;1.87;;;;;;;4.02;95.87;100157.59;5071743;28;20185;-77
2021/11/25 06:57:37;;;;;;;2.90;1.73;;;;;;;4.03;94.74;100151.91;5071980;28;20181;-76
2021/11/25 07:00:11;;;;;;;2.27;2.07;;;;;;;4.05;94.71;100141.66;5071899;28;20182;-77
2021/11/25 07:02:37;;;;;;;3.60;3.30;;;;;;;4.08;94.37;100137.56;5071868;28;20181;-77
2021/11/25 07:05:05;;;;;;;2.97;2.77;;;;;;;4.11;94.18;100145.94;5071646;28;20182;-77
2021/11/25 07:07:31;;;;;;;2.33;2.13;;;;;;;4.12;94.83;100152.16;5071805;28;20265;-76
2021/11/25 07:09:56;;;;;;;3.10;2.80;;;;;;;4.09;94.24;100147.31;5071466;28;20206;-77
2021/11/25 07:12:22;;;;;;;3.87;3.50;;;;;;;4.09;94.03;100145.41;5071761;28;20193;-77
2021/11/25 07:14:47;;;;;;;2.00;1.50;;;;;;;4.10;93.90;100154.31;5071670;28;20179;-77
2021/11/25 07:17:12;;;;;;;3.00;2.80;;;;;;;4.07;94.15;100147.59;5071594;28;20634;-76
2021/11/25 07:19:38;;;;;;;6.53;1.83;;;;;;;4.06;94.39;100154.06;5071322;28;20245;-76
2021/11/25 07:22:04;;;;;;;2.50;1.67;;;;;;;4.07;93.90;100152.19;5071233;28;20667;-76
2021/11/25 07:24:29;;;;;;;1.77;1.67;;;;;;;4.02;94.61;100134.06;5071599;28;20178;-76
2021/11/25 07:26:54;;;;;;;6.53;3.67;;;;;;;4.01;95.09;100131.63;5071221;28;20249;-76
2021/11/25 07:29:20;;;;;;;1.33;1.13;;;;;;;4.00;95.21;100130.84;5071091;28;20562;-76
2021/11/25 07:31:46;;;;;;;3.10;2.80;;;;;;;4.00;95.13;100133.53;5071014;28;20179;-75
2021/11/25 07:34:12;;;;;;;2.53;2.33;;;;;;;4.01;95.96;100129.75;5066991;28;20198;-76
2021/11/25 07:36:38;;;;;;;2.23;2.03;;;;;;;4.00;96.45;100136.25;5070768;28;20179;-76
2021/11/25 07:39:04;;;;;;;1.60;1.30;;;;;;;3.99;96.62;100134.63;5070709;28;20200;-76
2021/11/25 07:41:31;;;;;;;1.67;1.53;;;;;;;3.98;97.43;100133.00;5071222;28;20175;-77
2021/11/25 07:43:56;;;;;;;1.07;0.97;;;;;;;3.96;97.29;100131.66;5071328;28;20182;-76
2021/11/25 07:46:21;;;;;;;1.77;1.67;;;;;;;3.94;97.48;100123.84;5070916;28;20178;-75
2021/11/25 07:48:47;;;;;;;2.20;2.00;;;;;;;3.93;97.81;100127.63;5070972;28;20185;-75
2021/11/25 07:51:13;;;;;;;1.80;1.70;;;;;;;3.93;98.60;100124.94;5071243;28;20178;-77
2021/11/25 07:53:38;;;;;;;3.87;3.47;;;;;;;3.95;98.81;100128.16;5070807;28;20262;-77
2021/11/25 07:56:04;;;;;;;3.80;3.37;;;;;;;3.99;98.93;100129.22;5070900;28;20174;-77
2021/11/25 07:58:29;;;;;;;3.57;3.27;;;;;;;3.98;98.77;100122.19;5070861;28;20186;-76
2021/11/25 08:00:56;;;;;;;3.13;2.83;;;;;;;3.97;98.56;100119.78;5069120;28;20273;-77
2021/11/25 08:03:21;;;;;;;3.23;2.37;;;;;;;3.98;99.25;100124.09;5070835;28;20171;-76
2021/11/25 08:05:47;;;;;;;4.30;3.90;;;;;;;3.97;99.30;100125.97;5069228;28;20185;-77
2021/11/25 08:08:12;;;;;;;2.00;1.87;;;;;;;3.96;98.57;100128.97;5070603;28;20530;-78
2021/11/25 08:10:41;;;;;;;1.33;1.13;;;;;;;3.95;99.27;100124.66;5070674;28;20317;-76
2021/11/25 08:13:06;;;;;;;3.10;2.20;;;;;;;3.99;99.72;100117.59;5070797;28;20178;-75
2021/11/25 08:15:33;;;;;;;2.67;2.47;;;;;;;3.99;99.49;100113.00;5070723;28;20175;-76
2021/11/25 08:17:58;;;;;;;1.87;1.77;;;;;;;4.00;99.05;100103.00;5071102;28;20187;-77
2021/11/25 08:20:24;;;;;;;3.33;3.03;;;;;;;4.01;98.97;100110.81;5070689;28;20243;-76
2021/11/25 08:22:49;;;;;;;4.03;1.50;;;;;;;4.04;99.08;100102.16;5070768;28;20217;-75
2021/11/25 08:25:15;;;;;;;4.87;3.27;;;;;;;4.06;98.72;100099.22;5069170;28;20181;-76
2021/11/25 08:27:41;;;;;;;0.90;0.80;;;;;;;4.01;98.54;100086.50;5070732;28;20277;-77
2021/11/25 08:30:11;;;;;;;3.07;0.80;;;;;;;4.00;97.88;100081.38;5070388;28;20713;-76
2021/11/25 08:32:36;;;;;;;3.87;3.47;;;;;;;3.97;98.20;100093.56;5070597;28;20171;-76
2021/11/25 08:35:02;;;;;;;3.97;3.43;;;;;;;3.98;98.23;100095.16;5070401;28;20168;-76
2021/11/25 08:37:27;;;;;;;3.20;3.00;;;;;;;4.00;98.70;100098.41;5070223;28;20641;-75
2021/11/25 08:39:53;;;;;;;2.03;1.93;;;;;;;4.03;98.73;100097.84;5070560;28;20179;-76
2021/11/25 08:42:18;;;;;;;1.80;1.70;;;;;;;4.05;98.25;100095.69;5069272;28;20175;-77
2021/11/25 08:44:43;;;;;;;0.37;0.37;;;;;;;4.10;99.03;100092.16;5070418;28;20202;-76
2021/11/25 08:47:09;;;;;;;1.90;1.80;;;;;;;4.10;98.97;100094.84;5070450;28;20194;-76
2021/11/25 08:49:34;;;;;;;1.77;1.67;;;;;;;4.11;99.00;100086.47;5070550;28;20667;-77
2021/11/25 08:52:00;;;;;;;1.30;1.20;;;;;;;4.18;100.00;100092.38;5070430;28;20236;-79
2021/11/25 08:54:25;;;;;;;4.00;0.83;;;;;;;4.17;98.74;100098.06;5070063;28;20228;-76
2021/11/25 08:56:52;;;;;;;2.57;2.37;;;;;;;4.17;98.40;100101.56;5069792;28;20608;-76
2021/11/25 08:59:18;;;;;;;3.40;3.20;;;;;;;4.20;99.11;100096.72;5069753;28;20174;-77
2021/11/25 09:01:43;;;;;;;6.03;2.93;;;;;;;4.21;99.10;100099.13;5069996;28;20179;-75
2021/11/25 09:04:09;;;;;;;3.73;3.13;;;;;;;4.23;98.74;100090.75;5069934;28;20189;-76
2021/11/25 09:06:35;;;;;;;1.17;1.07;;;;;;;4.25;98.97;100080.47;5070133;28;20250;-76
2021/11/25 09:09:03;;;;;;;1.60;1.50;;;;;;;4.20;98.16;100075.91;5070261;28;20282;-76
2021/11/25 09:11:29;;;;;;;3.93;3.63;;;;;;;4.17;98.86;100079.94;5070213;28;20175;-75
2021/11/25 09:13:54;;;;;;;6.73;3.97;;;;;;;4.11;99.30;100067.53;5073967;28;20229;-80
2021/11/25 09:16:19;;;;;;;0.80;0.80;;;;;;;4.07;99.09;100069.19;5074471;28;20183;-74
2021/11/25 09:18:45;;;;;;;1.33;0.83;;;;;;;4.13;99.74;100070.78;5073781;28;20528;-73
2021/11/25 09:21:11;;;;;;;2.63;1.77;;;;;;;4.13;98.61;100076.19;5072557;28;20175;-74
2021/11/25 09:23:36;;;;;;;2.43;2.23;;;;;;;4.15;98.42;100081.31;5074050;28;20182;-73
2021/11/25 09:26:01;;;;;;;4.17;3.87;;;;;;;4.18;99.06;100080.75;5073527;28;20679;-72
2021/11/25 09:28:27;;;;;;;5.33;4.83;;;;;;;4.24;99.51;100086.94;5069774;28;20179;-73
2021/11/25 09:30:54;;;;;;;3.40;3.10;;;;;;;4.31;99.67;100087.44;5073444;28;20802;-73
2021/11/25 09:33:21;;;;;;;3.70;3.33;;;;;;;4.39;100.00;100090.38;5073274;28;20170;-73
2021/11/25 09:35:47;;;;;;;5.43;5.00;;;;;;;4.45;99.53;100085.75;5073348;28;20178;-72
2021/11/25 09:38:13;;;;;;;4.80;4.33;;;;;;;4.53;99.90;100093.28;5073688;28;20302;-74
2021/11/25 09:40:41;;;;;;;4.73;4.20;;;;;;;4.49;97.64;100076.00;5073420;28;20175;-73
2021/11/25 09:43:10;;;;;;;2.87;2.57;;;;;;;4.54;96.75;100070.53;5072157;28;20174;-74
2021/11/25 09:45:37;;;;;;;2.00;1.87;;;;;;;4.61;96.71;100087.25;5072943;28;20167;-76
2021/11/25 09:48:06;;;;;;;2.47;2.23;;;;;;;4.57;95.29;100078.09;5071892;28;20235;-74
2021/11/25 09:50:35;;;;;;;1.40;1.37;;;;;;;4.62;95.28;100088.88;5073156;28;20288;-74
2021/11/25 09:53:04;;;;;;;2.27;2.17;;;;;;;4.69;94.99;100081.25;5073248;28;20174;-74
2021/11/25 09:55:31;;;;;;;1.57;1.47;;;;;;;4.73;94.25;100085.03;5072848;28;20209;-74
2021/11/25 09:57:58;;;;;;;2.80;2.67;;;;;;;4.80;92.89;100100.97;5072927;28;20630;-74
2021/11/25 10:00:27;;;;;;;2.37;2.17;;;;;;;4.87;91.51;100095.22;5073039;28;20312;-74
2021/11/25 10:02:53;;;;;;;1.77;1.63;;;;;;;5.04;91.20;100093.72;5072964;28;20676;-73
2021/11/25 10:05:18;;;;;;;3.60;3.27;;;;;;;5.15;90.53;100096.34;5072721;28;20192;-73
2021/11/25 10:07:45;;;;;;;2.70;2.47;;;;;;;5.15;89.78;100089.03;5073242;28;20209;-74
2021/11/25 10:10:28;;;;;;;2.23;2.07;;;;;;;5.04;89.77;100088.28;5072689;28;20213;-74
2021/11/25 10:12:59;;;;;;;2.10;2.00;;;;;;;4.96;89.80;100078.09;5072533;28;20203;-75
2021/11/25 10:15:31;;;;;;;3.30;3.10;;;;;;;4.99;90.86;100080.22;5072507;28;20261;-73
2021/11/25 10:17:59;;;;;;;2.17;1.97;;;;;;;5.00;91.21;100070.22;5072673;28;20177;-74
2021/11/25 10:20:35;;;;;;;2.10;1.93;;;;;;;4.90;91.09;100071.09;5072933;28;20257;-74
2021/11/25 10:23:04;;;;;;;5.27;4.77;;;;;;;4.85;91.57;100063.00;5071035;28;20180;-74
2021/11/25 10:25:57;;;;;;;5.97;2.43;;;;;;;4.92;92.67;100066.22;5072266;28;20175;-74
2021/11/25 10:28:42;;;;;;;4.17;3.80;;;;;;;4.85;92.31;100059.50;5072437;28;20642;-73
2021/11/25 10:31:14;;;;;;;3.10;2.90;;;;;;;4.84;92.62;100055.19;5072125;28;20528;-74
2021/11/25 10:33:48;;;;;;;3.83;3.60;;;;;;;4.85;92.56;100065.72;5072388;28;20170;-74
2021/11/25 10:36:28;;;;;;;5.30;3.80;;;;;;;4.87;92.67;100068.94;5071996;28;20200;-73
2021/11/25 10:38:59;;;;;;;6.97;4.93;;;;;;;4.93;93.51;100058.91;5070356;28;20170;-74
2021/11/25 10:41:27;;;;;;;4.57;4.27;;;;;;;5.00;93.92;100062.88;5071852;28;20175;-73
2021/11/25 10:44:17;;;;;;;3.87;3.57;;;;;;;5.06;93.48;100063.66;5072009;28;20253;-73
2021/11/25 10:46:46;;;;;;;3.23;3.00;;;;;;;4.97;92.41;100059.94;5071868;28;20177;-73
2021/11/25 10:49:13;;;;;;;3.50;3.30;;;;;;;4.97;93.08;100049.13;5071815;28;20206;-74
2021/11/25 10:51:42;;;;;;;3.77;3.47;;;;;;;4.96;93.28;100044.81;5071756;28;20166;-73
2021/11/25 10:54:13;;;;;;;1.63;1.53;;;;;;;4.97;93.56;100046.41;5070521;28;20179;-74
2021/11/25 10:56:43;;;;;;;1.87;1.73;;;;;;;4.88;91.80;100046.22;5071568;28;20186;-74
2021/11/25 10:59:13;;;;;;;4.17;3.77;;;;;;;4.88;92.79;100037.28;5072343;28;20170;-74
2021/11/25 11:01:41;;;;;;;5.43;4.57;;;;;;;4.91;93.13;100031.28;5071725;28;20258;-74
2021/11/25 11:04:11;;;;;;;5.83;5.37;;;;;;;4.97;92.66;100027.47;5071808;28;20171;-74
2021/11/25 11:06:39;;;;;;;3.33;3.13;;;;;;;4.98;92.55;100027.19;5071486;28;20174;-74
2021/11/25 11:09:07;;;;;;;2.80;2.70;;;;;;;4.95;92.77;100033.16;5071406;28;20240;-74
2021/11/25 11:11:37;;;;;;;5.63;5.17;;;;;;;5.02;94.03;100038.25;5071501;28;20262;-74
2021/11/25 11:16:43;;;;;;;3.27;2.90;;;;;;;5.06;93.20;100032.00;5071393;28;20175;-74
2021/11/25 11:19:12;;;;;;;15.60;1.90;;;;;;;5.04;92.16;100031.44;5071432;28;20165;-74
2021/11/25 11:21:41;;;;;;;2.83;2.63;;;;;;;5.07;92.38;100035.50;5071405;28;20257;-74
2021/11/25 11:24:10;;;;;;;2.90;2.20;;;;;;;5.08;92.65;100037.94;5071842;28;20605;-74
2021/11/25 11:26:40;;;;;;;2.00;1.90;;;;;;;5.08;92.55;100037.13;5076811;28;20197;-74
2021/11/25 11:29:05;;;;;;;1.83;1.73;;;;;;;5.11;92.85;100039.25;5075479;28;20645;-73
2021/11/25 11:31:34;;;;;;;3.80;2.33;;;;;;;5.12;92.25;100032.75;5072164;28;20182;-74
2021/11/25 11:34:01;;;;;;;3.07;2.73;;;;;;;5.11;91.01;100030.31;5071889;28;20201;-74
2021/11/25 11:36:27;;;;;;;3.73;3.27;;;;;;;5.13;91.18;100028.94;5070567;28;20170;-74
2021/11/25 11:38:54;;;;;;;3.33;3.13;;;;;;;5.08;90.52;100024.38;5071430;28;20174;-73
2021/11/25 11:41:20;;;;;;;4.13;3.83;;;;;;;5.11;91.43;100011.38;5070830;28;20175;-75